createdAt,value
2019-02-25T00:01:00.764Z,5.71
2019-02-25T00:06:07.492Z,5.70
2019-02-25T00:11:19.499Z,5.66
2019-02-25T00:16:25.111Z,5.66
2019-02-25T00:21:30.507Z,5.53
2019-02-25T00:26:36.408Z,5.27
2019-02-25T00:31:41.494Z,5.23
2019-02-25T00:36:46.734Z,5.13
2019-02-25T00:41:51.764Z,5.21
2019-02-25T00:46:56.924Z,5.25
2019-02-25T00:52:01.959Z,5.07
2019-02-25T00:57:08.969Z,4.88
2019-02-25T01:02:13.722Z,4.84
2019-02-25T01:07:18.797Z,4.94
2019-02-25T01:12:24.960Z,5.08
2019-02-25T01:17:30.501Z,5.10
2019-02-25T01:22:39.324Z,4.98
2019-02-25T01:27:44.432Z,4.75
2019-02-25T01:32:49.459Z,4.70
2019-02-25T01:37:54.536Z,4.84
2019-02-25T01:42:59.525Z,4.86
2019-02-25T01:48:04.616Z,4.81
2019-02-25T01:53:10.899Z,4.83
2019-02-25T01:58:16.017Z,4.86
2019-02-25T02:03:21.053Z,4.63
2019-02-25T02:08:26.140Z,4.37
2019-02-25T02:13:31.565Z,4.33
2019-02-25T02:18:47.018Z,4.20
2019-02-25T02:23:53.281Z,4.30
2019-02-25T02:28:58.661Z,4.31
2019-02-25T02:34:03.772Z,4.25
2019-02-25T02:39:08.762Z,4.24
2019-02-25T02:44:13.904Z,4.06
2019-02-25T02:49:18.910Z,4.13
2019-02-25T02:54:23.974Z,4.15
2019-02-25T02:59:29.027Z,4.17
2019-02-25T03:04:34.070Z,4.27
2019-02-25T03:09:39.644Z,4.25
2019-02-25T03:14:44.708Z,4.23
2019-02-25T03:19:49.780Z,4.22
2019-02-25T03:24:56.312Z,4.30
2019-02-25T03:30:01.358Z,4.28
2019-02-25T03:35:06.661Z,4.14
2019-02-25T03:40:13.556Z,3.94
2019-02-25T03:45:18.892Z,3.81
2019-02-25T03:50:23.912Z,3.78
2019-02-25T03:55:28.905Z,3.81
2019-02-25T04:00:33.929Z,3.72
2019-02-25T04:05:39.080Z,3.75
2019-02-25T04:10:44.096Z,3.68
2019-02-25T04:15:49.227Z,3.56
2019-02-25T04:20:54.483Z,3.44
2019-02-25T04:25:59.573Z,3.42
2019-02-25T04:31:04.557Z,3.45
2019-02-25T04:36:09.660Z,3.54
2019-02-25T04:41:14.732Z,3.45
2019-02-25T04:46:20.856Z,3.33
2019-02-25T04:51:26.038Z,3.35
2019-02-25T04:56:31.305Z,3.47
2019-02-25T05:01:36.405Z,3.43
2019-02-25T05:06:41.528Z,3.48
2019-02-25T05:11:46.516Z,3.47
2019-02-25T05:16:51.833Z,3.44
2019-02-25T05:21:57.125Z,3.32
2019-02-25T05:27:02.251Z,3.29
2019-02-25T05:32:07.705Z,3.13
2019-02-25T05:37:12.712Z,3.12
2019-02-25T05:42:18.121Z,3.23
2019-02-25T05:47:23.204Z,3.23
2019-02-25T05:52:28.222Z,3.30
2019-02-25T05:57:33.642Z,3.38
2019-02-25T06:02:38.748Z,3.42
2019-02-25T06:07:44.260Z,3.45
2019-02-25T06:12:49.665Z,3.44
2019-02-25T06:17:54.693Z,3.42
2019-02-25T06:22:59.836Z,3.35
2019-02-25T06:28:04.942Z,3.32
2019-02-25T06:33:10.493Z,3.31
2019-02-25T06:38:15.511Z,3.28
2019-02-25T06:43:20.530Z,3.18
2019-02-25T06:48:28.422Z,3.16
2019-02-25T06:53:33.526Z,3.14
2019-02-25T06:58:39.972Z,3.28
2019-02-25T07:03:46.756Z,3.32
2019-02-25T07:09:08.332Z,3.34
2019-02-25T07:14:33.768Z,3.38
2019-02-25T07:20:01.210Z,3.39
2019-02-25T07:25:37.369Z,3.51
2019-02-25T07:31:04.101Z,3.68
2019-02-25T07:36:26.583Z,3.71
2019-02-25T07:42:06.062Z,3.74
2019-02-25T07:47:16.572Z,3.75
2019-02-25T07:52:35.568Z,3.81
2019-02-25T07:58:11.594Z,3.92
2019-02-25T08:03:22.776Z,4.06
2019-02-25T08:08:49.660Z,4.18
2019-02-25T08:14:04.298Z,4.33
2019-02-25T08:19:34.916Z,4.59
2019-02-25T08:24:55.638Z,4.90
2019-02-25T08:30:19.644Z,5.22
2019-02-25T08:36:20.224Z,5.63
2019-02-25T08:41:33.052Z,5.97
2019-02-25T08:46:43.631Z,6.02
2019-02-25T08:51:48.760Z,6.05
2019-02-25T08:56:53.859Z,6.10
2019-02-25T09:01:58.901Z,6.24
2019-02-25T09:07:04.419Z,6.32
2019-02-25T09:12:09.908Z,6.43
2019-02-25T09:17:16.156Z,6.65
2019-02-25T09:22:21.314Z,6.75
2019-02-25T09:27:26.318Z,6.95
2019-02-25T09:32:30.488Z,7.70
2019-02-25T09:37:34.724Z,12.22
2019-02-25T09:42:38.820Z,17.02
2019-02-25T09:47:42.814Z,19.82
2019-02-25T09:52:46.706Z,21.96
2019-02-25T09:57:50.584Z,24.91
2019-02-25T10:02:55.380Z,25.15
2019-02-25T10:07:59.302Z,26.21
2019-02-25T10:13:03.288Z,26.74
2019-02-25T10:18:07.653Z,27.91
2019-02-25T10:23:11.734Z,28.99
2019-02-25T10:28:15.660Z,29.61
2019-02-25T10:33:19.648Z,27.87
2019-02-25T10:38:23.800Z,27.81
2019-02-25T10:43:29.622Z,26.64
2019-02-25T10:48:34.618Z,21.79
2019-02-25T10:53:39.598Z,21.21
2019-02-25T10:58:44.774Z,18.96
2019-02-25T11:03:52.026Z,19.74
2019-02-25T11:09:04.602Z,18.06
2019-02-25T11:14:11.213Z,18.97
2019-02-25T11:19:16.777Z,19.72
2019-02-25T11:24:23.374Z,19.71
2019-02-25T11:29:28.624Z,19.31
2019-02-25T11:34:35.590Z,18.50
2019-02-25T11:39:40.544Z,19.55
2019-02-25T11:44:45.547Z,18.66
2019-02-25T11:49:50.943Z,19.21
2019-02-25T11:54:56.292Z,19.15
2019-02-25T12:00:01.710Z,19.10
2019-02-25T12:05:08.738Z,19.79
2019-02-25T12:10:13.934Z,19.58
2019-02-25T12:15:18.096Z,20.43
2019-02-25T12:20:22.136Z,21.07
2019-02-25T12:25:26.136Z,20.91
2019-02-25T12:30:31.680Z,21.13
2019-02-25T12:35:35.802Z,21.67
2019-02-25T12:40:40.244Z,22.46
2019-02-25T12:45:44.527Z,24.28
2019-02-25T12:50:48.448Z,25.76
2019-02-25T12:55:52.368Z,24.95
2019-02-25T13:00:56.384Z,24.62
2019-02-25T13:06:01.602Z,24.67
2019-02-25T13:11:06.936Z,25.16
2019-02-25T13:16:12.056Z,25.50
2019-02-25T13:21:17.556Z,23.60
2019-02-25T13:26:21.646Z,23.73
2019-02-25T13:31:26.742Z,24.56
2019-02-25T13:36:31.794Z,24.31
2019-02-25T13:41:36.934Z,24.30
2019-02-25T13:46:42.047Z,23.99
2019-02-25T13:51:47.036Z,23.66
2019-02-25T13:56:56.416Z,23.06
2019-02-25T14:02:02.581Z,22.96
2019-02-25T14:07:08.124Z,23.18
2019-02-25T14:12:12.456Z,23.37
2019-02-25T14:17:16.486Z,23.09
2019-02-25T14:22:21.257Z,22.56
2019-02-25T14:27:27.128Z,21.89
2019-02-25T14:32:34.594Z,20.69
2019-02-25T14:37:39.521Z,18.33
2019-02-25T14:42:46.877Z,17.53
2019-02-25T14:47:55.389Z,16.55
2019-02-25T14:53:00.628Z,16.28
2019-02-25T14:58:10.721Z,16.13
2019-02-25T15:03:20.066Z,15.87
2019-02-25T15:08:26.058Z,15.76
2019-02-25T15:13:32.668Z,15.52
2019-02-25T15:18:37.328Z,15.42
2019-02-25T15:23:41.452Z,15.28
2019-02-25T15:28:46.545Z,15.18
2019-02-25T15:33:50.599Z,15.08
2019-02-25T15:38:54.691Z,14.92
2019-02-25T15:44:02.065Z,14.86
2019-02-25T15:49:04.857Z,14.76
2019-02-25T15:54:10.180Z,14.60
2019-02-25T15:59:14.258Z,14.47
2019-02-25T16:04:18.564Z,14.34
2019-02-25T16:09:25.472Z,14.23
2019-02-25T16:14:29.799Z,14.15
2019-02-25T16:19:41.523Z,14.07
2019-02-25T16:24:43.601Z,13.97
2019-02-25T16:29:49.121Z,13.85
2019-02-25T16:34:55.608Z,13.75
2019-02-25T16:40:03.845Z,13.65
2019-02-25T16:45:14.158Z,13.53
2019-02-25T16:50:21.086Z,13.41
2019-02-25T16:55:27.800Z,13.29
2019-02-25T17:00:35.466Z,13.18
2019-02-25T17:05:42.087Z,13.05
2019-02-25T17:10:48.973Z,12.98
2019-02-25T17:15:54.198Z,12.89
2019-02-25T17:20:59.429Z,12.83
2019-02-25T17:26:05.980Z,12.74
2019-02-25T17:31:14.328Z,12.60
2019-02-25T17:36:19.374Z,12.51
2019-02-25T17:41:25.027Z,12.37
2019-02-25T17:46:32.540Z,12.37
2019-02-25T17:51:37.402Z,12.29
2019-02-25T17:56:43.124Z,12.19
2019-02-25T18:01:50.553Z,12.05
2019-02-25T18:06:55.798Z,11.97
2019-02-25T18:12:02.180Z,11.92
2019-02-25T18:17:08.317Z,11.83
2019-02-25T18:22:16.578Z,11.72
2019-02-25T18:27:20.875Z,11.63
2019-02-25T18:32:27.872Z,11.59
2019-02-25T18:37:35.285Z,11.49
2019-02-25T18:42:42.523Z,11.38
2019-02-25T18:47:47.686Z,11.25
2019-02-25T18:52:54.624Z,11.19
2019-02-25T18:58:00.292Z,11.04
2019-02-25T19:03:05.853Z,10.96
2019-02-25T19:08:15.072Z,10.87
2019-02-25T19:13:23.350Z,10.75
2019-02-25T19:18:29.474Z,10.71
2019-02-25T19:23:37.704Z,10.62
2019-02-25T19:28:45.965Z,10.64
2019-02-25T19:33:49.672Z,10.53
2019-02-25T19:38:55.824Z,10.42
2019-02-25T19:44:03.502Z,10.41
2019-02-25T19:49:09.330Z,10.38
2019-02-25T19:54:16.763Z,10.34
2019-02-25T19:59:24.077Z,10.20
2019-02-25T20:04:33.474Z,10.11
2019-02-25T20:09:40.322Z,10.08
2019-02-25T20:14:46.580Z,9.97
2019-02-25T20:19:50.393Z,9.90
2019-02-25T20:24:57.964Z,9.79
2019-02-25T20:30:05.355Z,9.84
2019-02-25T20:35:14.015Z,9.78
2019-02-25T20:40:21.830Z,9.66
2019-02-25T20:45:27.741Z,9.55
2019-02-25T20:50:34.142Z,9.52
2019-02-25T20:55:39.198Z,9.42
2019-02-25T21:00:46.607Z,9.35
2019-02-25T21:05:52.181Z,9.29
2019-02-25T21:10:59.166Z,9.24
2019-02-25T21:16:04.846Z,9.22
2019-02-25T21:21:13.980Z,9.16
2019-02-25T21:26:18.638Z,9.11
2019-02-25T21:31:24.511Z,9.00
2019-02-25T21:36:32.143Z,8.92
2019-02-25T21:41:39.115Z,8.87
2019-02-25T21:46:49.599Z,8.79
2019-02-25T21:51:52.087Z,8.79
2019-02-25T21:56:59.068Z,8.67
2019-02-25T22:02:04.523Z,8.58
2019-02-25T22:07:09.618Z,8.50
2019-02-25T22:12:14.814Z,8.43
2019-02-25T22:17:21.952Z,8.37
2019-02-25T22:22:28.853Z,8.38
2019-02-25T22:27:35.294Z,8.35
2019-02-25T22:32:41.243Z,8.32
2019-02-25T22:37:49.721Z,8.39
2019-02-25T22:42:54.959Z,8.38
2019-02-25T22:48:01.381Z,8.39
2019-02-25T22:53:08.903Z,8.38
2019-02-25T22:58:14.943Z,8.30
2019-02-25T23:03:22.812Z,8.34
2019-02-25T23:08:27.882Z,8.20
2019-02-25T23:13:32.981Z,8.16
2019-02-25T23:18:40.595Z,7.78
2019-02-25T23:23:45.620Z,7.84
2019-02-25T23:28:51.464Z,7.82
2019-02-25T23:33:57.679Z,7.72
2019-02-25T23:39:03.733Z,7.73
2019-02-25T23:44:12.632Z,7.77
2019-02-25T23:49:26.872Z,7.79
2019-02-25T23:54:26.060Z,7.74
2019-02-25T23:59:30.486Z,7.65
